FAEG weather

Egnep Airport
Egnep, Limpopo, South Africa

Public forecast

Using degrees Celsius for public forecast. Weather courtesy of forecast.io.

METAR (pilot weather report)

Closest report is Hoedspruit Air Force Base Airport, 41.7 nm (77.3 km) ENE. Retrieved 2019/07/21 10:00 UTC (25 minutes ago):

FAHS 211000Z AUTO 18009KT //// // ////// 16/M02 Q1031

TAF (pilot weather forecast)

Forecast is more than 12 hours old.

Closest forecast is Hoedspruit Air Force Base Airport, 41.7 nm (77.3 km) ENE. Retrieved 2017/05/23 04:01 UTC (2 years ago):

TAF FAHS 230300Z 2304/2315 VRB02KT CAVOK TX29/2312ZTN12/2304Z